createdAt,value
2023-04-25T00:00:49.579Z,94895.72
2023-04-25T00:03:22.257Z,94895.88
2023-04-25T00:05:54.179Z,94905.38
2023-04-25T00:08:26.065Z,94910.69
2023-04-25T00:10:59.293Z,94907.78
2023-04-25T00:13:30.798Z,94910.13
2023-04-25T00:16:03.627Z,94913.06
2023-04-25T00:18:35.773Z,94911.94
2023-04-25T00:21:07.344Z,94910.75
2023-04-25T00:23:39.802Z,94918.66
2023-04-25T00:26:11.535Z,94921.88
2023-04-25T00:28:43.169Z,94909.63
2023-04-25T00:31:15.219Z,94905.50
2023-04-25T00:33:46.780Z,94916.50
2023-04-25T00:36:19.204Z,94904.44
2023-04-25T00:38:50.742Z,94905.13
2023-04-25T00:41:22.628Z,94906.22
2023-04-25T00:43:56.387Z,94906.63
2023-04-25T00:46:28.066Z,94900.16
2023-04-25T00:48:59.573Z,94896.75
2023-04-25T00:51:31.800Z,94891.06
2023-04-25T00:54:03.579Z,94884.28
2023-04-25T00:56:35.218Z,94887.00
2023-04-25T00:59:06.946Z,94891.22
2023-04-25T01:01:40.106Z,94892.38
2023-04-25T01:04:12.119Z,94902.31
2023-04-25T01:06:43.907Z,94891.72
2023-04-25T01:09:15.857Z,94894.78
2023-04-25T01:11:47.352Z,94895.13
2023-04-25T01:14:18.895Z,94889.84
2023-04-25T01:16:50.769Z,94891.34
2023-04-25T01:19:22.331Z,94889.47
2023-04-25T01:21:53.899Z,94887.94
2023-04-25T01:24:25.685Z,94887.53
2023-04-25T01:26:57.926Z,94883.00
2023-04-25T01:29:29.938Z,94883.00
2023-04-25T01:32:02.553Z,94888.66
2023-04-25T01:34:34.056Z,94879.19
2023-04-25T01:37:05.653Z,94873.03
2023-04-25T01:39:37.353Z,94882.47
2023-04-25T01:42:09.490Z,94880.09
2023-04-25T01:44:41.008Z,94881.19
2023-04-25T01:47:12.593Z,94877.00
2023-04-25T01:49:44.113Z,94878.09
2023-04-25T01:52:15.626Z,94877.25
2023-04-25T01:54:47.392Z,94871.59
2023-04-25T01:57:18.877Z,94878.06
2023-04-25T01:59:50.774Z,94880.34
2023-04-25T02:02:22.311Z,94870.84
2023-04-25T02:04:55.187Z,94867.75
2023-04-25T02:07:27.442Z,94871.16
2023-04-25T02:09:59.075Z,94878.44
2023-04-25T02:12:30.846Z,94879.59
2023-04-25T02:15:02.532Z,94880.75
2023-04-25T02:17:34.514Z,94876.56
2023-04-25T02:20:06.573Z,94878.53
2023-04-25T02:22:38.105Z,94880.47
2023-04-25T02:25:10.354Z,94879.75
2023-04-25T02:27:41.847Z,94875.63
2023-04-25T02:30:13.748Z,94872.22
2023-04-25T02:32:45.678Z,94866.91
2023-04-25T02:35:17.523Z,94865.81
2023-04-25T02:37:49.246Z,94872.00
2023-04-25T02:40:20.781Z,94873.16
2023-04-25T02:42:52.469Z,94866.03
2023-04-25T02:45:24.063Z,94862.66
2023-04-25T02:47:55.666Z,94867.84
2023-04-25T02:50:27.180Z,94869.06
2023-04-25T02:52:58.603Z,94868.63
2023-04-25T02:55:30.237Z,94880.81
2023-04-25T02:58:01.712Z,94879.47
2023-04-25T03:00:33.209Z,94884.03
2023-04-25T03:03:04.735Z,94874.47
2023-04-25T03:05:36.358Z,94882.19
2023-04-25T03:08:07.879Z,94876.34
2023-04-25T03:10:39.594Z,94869.22
2023-04-25T03:13:11.148Z,94853.31
2023-04-25T03:15:42.633Z,94848.13
2023-04-25T03:18:14.139Z,94851.84
2023-04-25T03:20:45.686Z,94854.84
2023-04-25T03:23:17.159Z,94848.47
2023-04-25T03:25:48.599Z,94857.56
2023-04-25T03:28:20.100Z,94850.41
2023-04-25T03:30:51.654Z,94858.22
2023-04-25T03:33:23.372Z,94861.75
2023-04-25T03:35:54.870Z,94853.28
2023-04-25T03:38:26.308Z,94855.22
2023-04-25T03:40:57.849Z,94856.03
2023-04-25T03:43:29.403Z,94858.81
2023-04-25T03:46:02.433Z,94851.34
2023-04-25T03:48:34.037Z,94858.94
2023-04-25T03:51:05.617Z,94851.03
2023-04-25T03:53:37.121Z,94846.84
2023-04-25T03:56:08.568Z,94841.56
2023-04-25T03:58:40.036Z,94844.84
2023-04-25T04:01:11.883Z,94850.06
2023-04-25T04:03:43.602Z,94854.47
2023-04-25T04:06:15.898Z,94853.69
2023-04-25T04:08:47.794Z,94850.72
2023-04-25T04:11:19.329Z,94848.91
2023-04-25T04:13:51.051Z,94857.59
2023-04-25T04:16:22.705Z,94848.78
2023-04-25T04:18:54.243Z,94849.13
2023-04-25T04:21:25.739Z,94842.44
2023-04-25T04:23:58.687Z,94838.63
2023-04-25T04:26:30.360Z,94840.97
2023-04-25T04:29:02.347Z,94849.31
2023-04-25T04:31:33.952Z,94850.03
2023-04-25T04:34:05.716Z,94859.13
2023-04-25T04:36:37.173Z,94863.75
2023-04-25T04:39:10.200Z,94865.63
2023-04-25T04:41:41.714Z,94862.22
2023-04-25T04:44:13.462Z,94864.31
2023-04-25T04:46:45.474Z,94860.13
2023-04-25T04:49:17.102Z,94852.44
2023-04-25T04:51:50.639Z,94858.22
2023-04-25T04:54:22.109Z,94847.56
2023-04-25T04:56:53.734Z,94839.72
2023-04-25T04:59:25.201Z,94843.00
2023-04-25T05:01:56.673Z,94853.22
2023-04-25T05:04:28.236Z,94860.06
2023-04-25T05:06:59.867Z,94860.41
2023-04-25T05:09:31.392Z,94854.03
2023-04-25T05:12:03.247Z,94853.44
2023-04-25T05:14:34.809Z,94849.25
2023-04-25T05:17:09.330Z,94847.50
2023-04-25T05:19:40.808Z,94864.22
2023-04-25T05:22:12.280Z,94863.28
2023-04-25T05:24:43.861Z,94854.69
2023-04-25T05:27:17.984Z,94849.81
2023-04-25T05:29:49.507Z,94857.69
2023-04-25T05:32:21.105Z,94851.47
2023-04-25T05:34:52.852Z,94855.69
2023-04-25T05:37:24.440Z,94853.44
2023-04-25T05:39:55.924Z,94850.50
2023-04-25T05:42:27.559Z,94855.50
2023-04-25T05:44:59.071Z,94867.28
2023-04-25T05:47:30.753Z,94868.03
2023-04-25T05:50:02.990Z,94886.91
2023-04-25T05:52:34.515Z,94880.38
2023-04-25T05:55:06.716Z,94881.53
2023-04-25T05:57:38.273Z,94892.34
2023-04-25T06:00:10.586Z,94880.88
2023-04-25T06:02:42.133Z,94874.72
2023-04-25T06:05:13.886Z,94871.81
2023-04-25T06:07:45.724Z,94861.25
2023-04-25T06:10:17.185Z,94864.06
2023-04-25T06:12:48.672Z,94863.53
2023-04-25T06:17:54.895Z,94865.25
2023-04-25T06:20:26.478Z,94866.34
2023-04-25T06:22:58.256Z,94869.94
2023-04-25T06:25:29.720Z,94868.28
2023-04-25T06:28:01.189Z,94869.34
2023-04-25T06:30:32.661Z,94860.47
2023-04-25T06:33:04.367Z,94861.44
2023-04-25T06:35:36.062Z,94858.47
2023-04-25T06:38:07.543Z,94857.59
2023-04-25T06:40:39.051Z,94850.41
2023-04-25T06:43:10.860Z,94851.78
2023-04-25T06:45:43.746Z,94848.22
2023-04-25T06:48:16.629Z,94842.56
2023-04-25T06:50:48.338Z,94848.84
2023-04-25T06:53:19.895Z,94854.06
2023-04-25T06:55:51.481Z,94860.13
2023-04-25T06:58:23.258Z,94863.81
2023-04-25T07:00:54.853Z,94855.47
2023-04-25T07:03:26.516Z,94853.44
2023-04-25T07:05:58.097Z,94852.03
2023-04-25T07:08:30.596Z,94844.91
2023-04-25T07:11:02.130Z,94851.06
2023-04-25T07:13:33.649Z,94841.16
2023-04-25T07:16:05.998Z,94848.25
2023-04-25T07:18:37.456Z,94844.59
2023-04-25T07:21:09.014Z,94841.50
2023-04-25T07:23:41.739Z,94844.19
2023-04-25T07:26:13.532Z,94848.28
2023-04-25T07:28:45.264Z,94845.69
2023-04-25T07:31:19.070Z,94838.56
2023-04-25T07:33:50.574Z,94832.94
2023-04-25T07:36:22.547Z,94843.38
2023-04-25T07:38:54.035Z,94843.81
2023-04-25T07:41:25.606Z,94833.75
2023-04-25T07:43:57.122Z,94835.78
2023-04-25T07:46:28.753Z,94835.28
2023-04-25T07:49:00.224Z,94842.09
2023-04-25T07:51:32.547Z,94828.63
2023-04-25T07:54:03.937Z,94842.03
2023-04-25T07:56:49.133Z,94831.22
2023-04-25T07:59:23.637Z,94831.16
2023-04-25T08:01:55.341Z,94830.47
2023-04-25T08:04:27.178Z,94829.31
2023-04-25T08:06:58.905Z,94827.06
2023-04-25T08:09:34.834Z,94824.06
2023-04-25T08:12:06.432Z,94826.34
2023-04-25T08:14:38.346Z,94822.25
2023-04-25T08:17:10.790Z,94826.91
2023-04-25T08:19:42.116Z,94826.94
2023-04-25T08:22:13.813Z,94831.09
2023-04-25T08:24:45.292Z,94825.28
2023-04-25T08:27:16.836Z,94833.59
2023-04-25T08:29:48.610Z,94835.03
2023-04-25T08:32:20.432Z,94832.28
2023-04-25T08:34:54.988Z,94831.97
2023-04-25T08:37:26.740Z,94838.13
2023-04-25T08:39:58.258Z,94838.66
2023-04-25T08:42:32.673Z,94837.94
2023-04-25T08:45:07.041Z,94850.47
2023-04-25T08:47:40.924Z,94852.00
2023-04-25T08:50:12.753Z,94854.06
2023-04-25T08:52:46.624Z,94849.19
2023-04-25T08:55:18.369Z,94847.81
2023-04-25T08:57:51.357Z,94853.22
2023-04-25T09:00:23.852Z,94849.75
2023-04-25T09:02:56.382Z,94838.41
2023-04-25T09:05:29.762Z,94835.88
2023-04-25T09:08:01.802Z,94841.19
2023-04-25T09:10:33.683Z,94839.72
2023-04-25T09:13:09.963Z,94834.38
2023-04-25T09:15:50.339Z,94836.28
2023-04-25T09:18:30.021Z,94853.81
2023-04-25T09:21:14.234Z,94855.72
2023-04-25T09:23:49.202Z,94843.53
2023-04-25T09:26:22.332Z,94842.34
2023-04-25T09:29:08.331Z,94851.91
2023-04-25T09:31:39.891Z,94846.94
2023-04-25T09:34:16.607Z,94847.72
2023-04-25T09:36:48.190Z,94850.00
2023-04-25T09:39:22.453Z,94845.41
2023-04-25T09:41:57.917Z,94851.94
2023-04-25T09:44:29.525Z,94858.78
2023-04-25T09:47:01.110Z,94870.94
2023-04-25T09:49:32.713Z,94866.28
2023-04-25T09:52:04.252Z,94861.34
2023-04-25T09:54:35.883Z,94861.38
2023-04-25T09:57:15.928Z,94859.47
2023-04-25T09:59:51.245Z,94864.09
2023-04-25T10:02:27.607Z,94857.63
2023-04-25T10:05:00.912Z,94859.16
2023-04-25T10:07:34.965Z,94853.03
2023-04-25T10:10:07.207Z,94843.84
2023-04-25T10:12:40.517Z,94835.06
2023-04-25T10:15:13.171Z,94838.53
2023-04-25T10:17:45.013Z,94851.53
2023-04-25T10:20:17.078Z,94853.81
2023-04-25T10:22:55.119Z,94863.28
2023-04-25T10:25:26.916Z,94868.56
2023-04-25T10:28:00.800Z,94883.56
2023-04-25T10:30:32.466Z,94877.38
2023-04-25T10:33:19.161Z,94886.34
2023-04-25T10:35:51.281Z,94896.91
2023-04-25T10:38:22.865Z,94900.72
2023-04-25T10:41:09.412Z,94907.31
2023-04-25T10:43:45.321Z,94895.94
2023-04-25T10:46:22.602Z,94905.38
2023-04-25T10:48:57.753Z,94910.97
2023-04-25T10:51:47.292Z,94932.19
2023-04-25T10:54:24.063Z,94930.34
2023-04-25T10:56:55.643Z,94929.47
2023-04-25T10:59:29.076Z,94922.84
2023-04-25T11:02:12.191Z,94915.84
2023-04-25T11:04:45.517Z,94924.41
2023-04-25T11:10:36.141Z,94927.56
2023-04-25T11:13:07.695Z,94935.50
2023-04-25T11:15:39.206Z,94936.75
2023-04-25T11:18:11.010Z,94940.38
2023-04-25T11:20:44.348Z,94946.44
2023-04-25T11:23:16.777Z,94956.03
2023-04-25T11:25:48.461Z,94945.72
2023-04-25T11:28:25.626Z,94959.75
2023-04-25T11:30:57.857Z,94959.31
2023-04-25T11:33:29.577Z,94965.78
2023-04-25T11:36:01.254Z,94967.06
2023-04-25T11:38:32.970Z,94975.63
2023-04-25T11:41:04.545Z,94975.19
2023-04-25T11:43:36.509Z,94977.84
2023-04-25T11:46:09.955Z,94974.47
2023-04-25T11:48:43.160Z,94977.44
2023-04-25T11:51:15.427Z,94984.13
2023-04-25T11:53:47.190Z,94986.81
2023-04-25T11:56:18.762Z,94994.50
2023-04-25T11:59:04.169Z,94989.19
2023-04-25T12:01:37.980Z,94996.31
2023-04-25T12:04:17.501Z,94997.22
2023-04-25T12:06:51.700Z,95000.94
2023-04-25T12:09:32.003Z,95006.59
2023-04-25T12:12:04.240Z,94999.34
2023-04-25T12:14:37.305Z,95004.44
2023-04-25T12:17:10.837Z,95002.22
2023-04-25T12:19:42.701Z,94997.47
2023-04-25T12:22:25.665Z,95003.53
2023-04-25T12:24:59.377Z,94999.59
2023-04-25T12:27:32.980Z,94995.06
2023-04-25T12:30:05.037Z,94999.25
2023-04-25T12:32:37.415Z,95015.41
2023-04-25T12:35:09.285Z,95008.09
2023-04-25T12:37:41.155Z,95001.03
2023-04-25T12:40:12.829Z,95002.56
2023-04-25T12:42:44.336Z,95007.94
2023-04-25T12:45:16.120Z,95007.53
2023-04-25T12:47:47.779Z,95017.31
2023-04-25T12:50:19.438Z,95015.38
2023-04-25T12:52:51.207Z,95011.75
2023-04-25T12:55:22.815Z,95021.34
2023-04-25T12:57:54.348Z,95019.31
2023-04-25T13:00:26.019Z,95020.44
2023-04-25T13:02:57.726Z,95027.97
2023-04-25T13:05:29.266Z,95030.75
2023-04-25T13:08:00.732Z,95025.31
2023-04-25T13:10:32.346Z,95033.06
2023-04-25T13:13:03.899Z,95037.91
2023-04-25T13:15:36.356Z,95033.97
2023-04-25T13:18:07.973Z,95035.13
2023-04-25T13:20:39.535Z,95034.34
2023-04-25T13:23:11.209Z,95029.47
2023-04-25T13:25:42.723Z,95036.53
2023-04-25T13:28:14.952Z,95040.72
2023-04-25T13:30:46.708Z,95065.97
2023-04-25T13:33:18.761Z,95059.78
2023-04-25T13:35:54.849Z,95064.88
2023-04-25T13:38:26.742Z,95073.72
2023-04-25T13:40:58.305Z,95069.91
2023-04-25T13:43:29.807Z,95072.88
2023-04-25T13:46:01.392Z,95082.50
2023-04-25T13:48:32.992Z,95075.56
2023-04-25T13:51:04.482Z,95076.50
2023-04-25T13:53:36.186Z,95077.09
2023-04-25T13:56:07.748Z,95089.84
2023-04-25T13:58:39.270Z,95080.44
2023-04-25T14:01:10.780Z,95083.22
2023-04-25T14:03:43.076Z,95088.06
2023-04-25T14:06:14.643Z,95082.44
2023-04-25T14:08:46.474Z,95090.25
2023-04-25T14:11:19.218Z,95090.81
2023-04-25T14:13:50.989Z,95089.44
2023-04-25T14:16:23.880Z,95092.44
2023-04-25T14:18:55.575Z,95080.47
2023-04-25T14:21:29.084Z,95079.94
2023-04-25T14:24:00.728Z,95093.50
2023-04-25T14:26:32.287Z,95084.19
2023-04-25T14:29:06.052Z,95090.31
2023-04-25T14:31:37.571Z,95090.41
2023-04-25T14:34:09.589Z,95093.47
2023-04-25T14:36:41.092Z,95087.97
2023-04-25T14:39:15.055Z,95103.19
2023-04-25T14:41:46.570Z,95099.91
2023-04-25T14:44:18.642Z,95105.63
2023-04-25T14:46:52.662Z,95102.50
2023-04-25T14:49:24.287Z,95106.53
2023-04-25T14:51:55.938Z,95098.94
2023-04-25T14:54:27.440Z,95103.69
2023-04-25T14:56:59.022Z,95110.09
2023-04-25T14:59:30.498Z,95109.59
2023-04-25T15:02:02.034Z,95110.53
2023-04-25T15:04:34.293Z,95110.19
2023-04-25T15:07:06.125Z,95115.69
2023-04-25T15:09:37.662Z,95123.75
2023-04-25T15:12:09.263Z,95122.69
2023-04-25T15:14:41.095Z,95127.22
2023-04-25T15:17:14.912Z,95126.59
2023-04-25T15:19:46.484Z,95126.16
2023-04-25T15:22:18.016Z,95126.22
2023-04-25T15:24:49.702Z,95122.59
2023-04-25T15:27:24.135Z,95122.13
2023-04-25T15:29:55.886Z,95121.22
2023-04-25T15:32:27.580Z,95129.25
2023-04-25T15:34:59.257Z,95128.84
2023-04-25T15:37:31.315Z,95136.59
2023-04-25T15:40:11.845Z,95129.44
2023-04-25T15:42:48.852Z,95145.16
2023-04-25T15:45:24.120Z,95148.16
2023-04-25T15:47:56.968Z,95156.50
2023-04-25T15:50:28.524Z,95156.50
2023-04-25T15:53:00.016Z,95159.56
2023-04-25T15:55:31.992Z,95164.34
2023-04-25T15:58:03.489Z,95158.59
2023-04-25T16:00:36.243Z,95171.19
2023-04-25T16:03:07.935Z,95166.38
2023-04-25T16:05:39.578Z,95161.78
2023-04-25T16:08:11.076Z,95166.00
2023-04-25T16:10:42.942Z,95165.47
2023-04-25T16:13:14.522Z,95176.50
2023-04-25T16:15:46.051Z,95176.28
2023-04-25T16:18:17.924Z,95170.84
2023-04-25T16:20:49.626Z,95165.19
2023-04-25T16:23:21.169Z,95170.84
2023-04-25T16:25:52.908Z,95178.38
2023-04-25T16:28:24.370Z,95175.31
2023-04-25T16:30:56.239Z,95175.16
2023-04-25T16:33:27.860Z,95166.16
2023-04-25T16:35:59.410Z,95173.56
2023-04-25T16:38:30.975Z,95164.53
2023-04-25T16:41:02.633Z,95171.59
2023-04-25T16:43:34.366Z,95182.38
2023-04-25T16:46:05.989Z,95175.19
2023-04-25T16:48:37.458Z,95182.13
2023-04-25T16:51:08.978Z,95185.22
2023-04-25T16:53:41.402Z,95185.97
2023-04-25T16:56:13.183Z,95189.97
2023-04-25T16:58:44.726Z,95193.41
2023-04-25T17:01:17.218Z,95190.53
2023-04-25T17:03:49.244Z,95191.44
2023-04-25T17:06:20.924Z,95192.66
2023-04-25T17:08:52.553Z,95198.22
2023-04-25T17:11:24.425Z,95200.38
2023-04-25T17:13:56.037Z,95195.78
2023-04-25T17:16:35.299Z,95205.63
2023-04-25T17:19:07.456Z,95205.19
2023-04-25T17:21:39.000Z,95208.69
2023-04-25T17:24:11.784Z,95214.41
2023-04-25T17:26:43.388Z,95214.06
2023-04-25T17:29:15.410Z,95220.69
2023-04-25T17:31:47.049Z,95222.84
2023-04-25T17:34:18.605Z,95223.63
2023-04-25T17:36:50.181Z,95225.16
2023-04-25T17:39:21.619Z,95231.94
2023-04-25T17:41:53.142Z,95228.00
2023-04-25T17:44:24.815Z,95233.47
2023-04-25T17:46:56.343Z,95236.06
2023-04-25T17:49:28.060Z,95237.59
2023-04-25T17:52:00.752Z,95238.06
2023-04-25T17:54:32.351Z,95246.31
2023-04-25T17:57:04.720Z,95244.78
2023-04-25T17:59:36.420Z,95246.72
2023-04-25T18:02:08.593Z,95249.03
2023-04-25T18:04:40.332Z,95266.88
2023-04-25T18:07:12.336Z,95279.31
2023-04-25T18:09:44.848Z,95279.78
2023-04-25T18:12:17.969Z,95287.06
2023-04-25T18:14:49.457Z,95281.81
2023-04-25T18:17:25.094Z,95294.25
2023-04-25T18:19:56.650Z,95306.88
2023-04-25T18:22:28.823Z,95306.94
2023-04-25T18:25:01.394Z,95315.22
2023-04-25T18:27:32.901Z,95314.41
2023-04-25T18:30:11.543Z,95314.16
2023-04-25T18:32:43.366Z,95308.41
2023-04-25T18:35:17.330Z,95309.94
2023-04-25T18:37:49.570Z,95311.91
2023-04-25T18:40:21.290Z,95323.09
2023-04-25T18:42:53.130Z,95315.69
2023-04-25T18:45:25.040Z,95322.41
2023-04-25T18:47:56.946Z,95334.22
2023-04-25T18:50:28.605Z,95337.66
2023-04-25T18:53:00.393Z,95341.25
2023-04-25T18:55:32.074Z,95337.44
2023-04-25T18:58:03.853Z,95344.38
2023-04-25T19:00:35.653Z,95345.59
2023-04-25T19:03:07.661Z,95344.56
2023-04-25T19:05:39.452Z,95343.31
2023-04-25T19:08:10.924Z,95345.72
2023-04-25T19:10:42.439Z,95341.38
2023-04-25T19:13:15.129Z,95354.34
2023-04-25T19:15:49.691Z,95354.28
2023-04-25T19:18:21.228Z,95349.94
2023-04-25T19:20:52.848Z,95365.25
2023-04-25T19:23:26.238Z,95358.16
2023-04-25T19:25:58.012Z,95368.94
2023-04-25T19:28:30.445Z,95367.03
2023-04-25T19:31:02.450Z,95370.97
2023-04-25T19:33:34.427Z,95371.13
2023-04-25T19:36:06.069Z,95371.28
2023-04-25T19:38:37.513Z,95374.94
2023-04-25T19:41:08.988Z,95373.19
2023-04-25T19:43:40.518Z,95380.28
2023-04-25T19:46:12.136Z,95371.78
2023-04-25T19:48:44.183Z,95367.25
2023-04-25T19:51:15.685Z,95369.19
2023-04-25T19:53:47.106Z,95364.09
2023-04-25T19:56:18.631Z,95361.63
2023-04-25T19:58:51.073Z,95364.78
2023-04-25T20:01:23.260Z,95366.09
2023-04-25T20:03:55.582Z,95351.06
2023-04-25T20:06:28.895Z,95360.97
2023-04-25T20:09:01.288Z,95355.00
2023-04-25T20:11:33.648Z,95354.91
2023-04-25T20:14:05.724Z,95355.56
2023-04-25T20:16:37.668Z,95365.22
2023-04-25T20:19:09.442Z,95357.25
2023-04-25T20:21:41.284Z,95360.56
2023-04-25T20:24:13.636Z,95360.78
2023-04-25T20:26:45.463Z,95361.28
2023-04-25T20:29:17.276Z,95372.75
2023-04-25T20:31:50.770Z,95383.44
2023-04-25T20:34:22.728Z,95385.44
2023-04-25T20:36:54.533Z,95389.06
2023-04-25T20:39:27.684Z,95391.00
2023-04-25T20:42:01.913Z,95376.44
2023-04-25T20:44:33.395Z,95380.44
2023-04-25T20:47:05.739Z,95375.84
2023-04-25T20:49:38.394Z,95371.66
2023-04-25T20:52:11.308Z,95385.50
2023-04-25T20:54:43.235Z,95375.75
2023-04-25T20:57:14.749Z,95380.72
2023-04-25T20:59:47.839Z,95380.34
2023-04-25T21:02:20.788Z,95397.06
2023-04-25T21:04:52.801Z,95393.81
2023-04-25T21:07:24.456Z,95391.69
2023-04-25T21:09:56.031Z,95391.16
2023-04-25T21:12:27.833Z,95397.13
2023-04-25T21:15:00.719Z,95396.38
2023-04-25T21:17:32.289Z,95399.31
2023-04-25T21:20:10.256Z,95402.84
2023-04-25T21:22:49.360Z,95397.22
2023-04-25T21:25:29.272Z,95396.25
2023-04-25T21:28:02.620Z,95396.09
2023-04-25T21:30:34.621Z,95396.66
2023-04-25T21:33:06.541Z,95391.09
2023-04-25T21:35:38.305Z,95392.56
2023-04-25T21:38:10.065Z,95396.16
2023-04-25T21:40:41.995Z,95392.19
2023-04-25T21:43:13.817Z,95389.34
2023-04-25T21:48:23.178Z,95393.94
2023-04-25T21:50:55.662Z,95381.59
2023-04-25T21:53:27.248Z,95374.94
2023-04-25T21:55:58.749Z,95384.66
2023-04-25T21:58:30.252Z,95387.94
2023-04-25T22:01:01.840Z,95390.03
2023-04-25T22:03:34.214Z,95394.16
2023-04-25T22:06:06.061Z,95394.72
2023-04-25T22:08:37.649Z,95406.84
2023-04-25T22:11:09.371Z,95408.84
2023-04-25T22:13:40.944Z,95408.50
2023-04-25T22:16:12.681Z,95408.84
2023-04-25T22:18:46.800Z,95416.44
2023-04-25T22:21:18.411Z,95417.56
2023-04-25T22:23:52.137Z,95418.25
2023-04-25T22:26:25.406Z,95416.28
2023-04-25T22:28:56.942Z,95414.69
2023-04-25T22:31:29.035Z,95423.81
2023-04-25T22:34:00.695Z,95425.22
2023-04-25T22:36:33.203Z,95421.03
2023-04-25T22:39:04.718Z,95416.38
2023-04-25T22:41:36.415Z,95410.75
2023-04-25T22:44:07.952Z,95425.78
2023-04-25T22:46:39.557Z,95421.25
2023-04-25T22:49:11.969Z,95425.78
2023-04-25T22:51:43.416Z,95424.56
2023-04-25T22:54:14.898Z,95439.44
2023-04-25T22:56:46.386Z,95431.66
2023-04-25T22:59:20.727Z,95435.38
2023-04-25T23:01:52.570Z,95432.00
2023-04-25T23:04:25.452Z,95438.47
2023-04-25T23:06:57.206Z,95436.31
2023-04-25T23:09:28.788Z,95439.63
2023-04-25T23:12:00.376Z,95443.91
2023-04-25T23:14:33.159Z,95445.56
2023-04-25T23:17:05.148Z,95445.47
2023-04-25T23:19:36.793Z,95446.13
2023-04-25T23:22:08.581Z,95440.25
2023-04-25T23:24:40.513Z,95436.06
2023-04-25T23:27:12.020Z,95441.16
2023-04-25T23:29:43.767Z,95442.38
2023-04-25T23:32:15.248Z,95429.91
2023-04-25T23:34:46.690Z,95443.59
2023-04-25T23:37:18.243Z,95439.38
2023-04-25T23:39:53.024Z,95448.41
2023-04-25T23:42:24.588Z,95440.47
2023-04-25T23:44:56.064Z,95449.38
2023-04-25T23:47:27.590Z,95448.53
2023-04-25T23:49:59.104Z,95450.94
2023-04-25T23:52:30.634Z,95456.78
2023-04-25T23:55:02.128Z,95457.34
2023-04-25T23:57:33.884Z,95458.22
